Strona główna
METAR-TAF:

METAR-TAF

Lotnisko :

Port lotniczy Kair

Kair, Egipt

Szerokość geograficzna: 30-08N, Długość geograficzna: 031-24E, wysokość: 64 m

Aktualna obserwacja pogody

Raport powstał 18 minut temu, godzina 03:30 UTC
Wiatr 7 kt od północ
Temperatura 22°C
Wilgotność 73%
Ciśnienie 1012 hPa
Widzialność 10 km lub więcej
Brak chmur poniżej 1500 m i brak chmur cumulonimbus

METAR: HECA 150330Z 36007KT CAVOK 22/17 Q1012 NOSIG

czas: 05:48 (03:48 UTC)

Prognoza

Raport powstał 4 godziny i 48 minut temu, godzina 23:00 UTC
Prognoza ważna od 15 godzina 00 UTC do 16 godzina 06 UTC
Wiatr 9 kt od północno-północny wschód
Widzialność 10 km lub więcej
Brak chmur poniżej 1500 m i brak chmur cumulonimbus
Przejściowo
od 15 godzina 02 UTC do 15 godzina 06 UTC
Wiatr 4 kt z kierunków zmiennych
Widzialność: 3000 m
zamglenie

TAF: HECA 142300Z 1500/1606 03009KT CAVOK TEMPO 1502/1506 VRB04KT 3000 BR NSC

Obserwacja i prognoza pogody dla ponad 4000 lotnisk (raport METAR i TAF).

Dostępne stacje oznaczono żółtymi i czerwonymi punktami na mapie.

Najedź kursorem aby zobaczyć nazwę stacji.

Kliknij aby zobaczyć obserwacje i prognozy pogody.

Aby zmienić mapę: kliknij na zielony przycisk z czarnym krzyżykiem, aby powiększyć; na zielony przycisk z myślnikiem, aby pomniejszyć; na zielone strzałki, aby przejść do map sąsiednich.


METAR-TAF: